sensor_id;sensor_type;location;lat;lon;timestamp;pressure;altitude;pressure_sealevel;temperature;humidity
12475;BME280;6302;42.624;23.334;2023-01-31T00:00:24;92741.38;;;-0.12;100.00
12475;BME280;6302;42.624;23.334;2023-01-31T00:02:51;92745.94;;;-0.09;100.00
12475;BME280;6302;42.624;23.334;2023-01-31T00:05:18;92753.91;;;-0.02;100.00
12475;BME280;6302;42.624;23.334;2023-01-31T00:07:45;92761.81;;;0.02;100.00
12475;BME280;6302;42.624;23.334;2023-01-31T00:10:12;92766.00;;;0.06;100.00
12475;BME280;6302;42.624;23.334;2023-01-31T00:12:39;92761.19;;;0.08;100.00
12475;BME280;6302;42.624;23.334;2023-01-31T00:15:07;92770.59;;;0.13;100.00
12475;BME280;6302;42.624;23.334;2023-01-31T00:17:35;92768.06;;;0.16;100.00
12475;BME280;6302;42.624;23.334;2023-01-31T00:20:02;92759.09;;;0.14;100.00
12475;BME280;6302;42.624;23.334;2023-01-31T00:22:29;92760.00;;;0.21;100.00
12475;BME280;6302;42.624;23.334;2023-01-31T00:24:56;92760.00;;;0.21;100.00
12475;BME280;6302;42.624;23.334;2023-01-31T00:27:23;92762.47;;;0.14;100.00
12475;BME280;6302;42.624;23.334;2023-01-31T00:29:49;92755.78;;;-0.03;100.00
12475;BME280;6302;42.624;23.334;2023-01-31T00:32:16;92762.31;;;-0.09;100.00
12475;BME280;6302;42.624;23.334;2023-01-31T00:34:44;92762.22;;;-0.12;100.00
12475;BME280;6302;42.624;23.334;2023-01-31T00:37:11;92762.97;;;-0.12;100.00
12475;BME280;6302;42.624;23.334;2023-01-31T00:39:38;92763.06;;;-0.08;100.00
12475;BME280;6302;42.624;23.334;2023-01-31T00:42:05;92763.06;;;-0.08;100.00
12475;BME280;6302;42.624;23.334;2023-01-31T00:44:31;92760.06;;;-0.10;100.00
12475;BME280;6302;42.624;23.334;2023-01-31T00:46:58;92754.00;;;-0.14;100.00
12475;BME280;6302;42.624;23.334;2023-01-31T00:49:25;92755.44;;;-0.17;100.00
12475;BME280;6302;42.624;23.334;2023-01-31T00:51:53;92763.06;;;-0.24;100.00
12475;BME280;6302;42.624;23.334;2023-01-31T00:54:20;92756.84;;;-0.19;100.00
12475;BME280;6302;42.624;23.334;2023-01-31T00:56:47;92750.16;;;-0.20;100.00
12475;BME280;6302;42.624;23.334;2023-01-31T00:59:14;92752.75;;;-0.20;100.00
12475;BME280;6302;42.624;23.334;2023-01-31T01:01:41;92754.00;;;-0.14;100.00
12475;BME280;6302;42.624;23.334;2023-01-31T01:04:07;92739.91;;;-0.13;100.00
12475;BME280;6302;42.624;23.334;2023-01-31T01:06:37;92746.59;;;-0.12;100.00
12475;BME280;6302;42.624;23.334;2023-01-31T01:09:07;92749.91;;;-0.15;100.00
12475;BME280;6302;42.624;23.334;2023-01-31T01:11:34;92742.09;;;-0.15;100.00
12475;BME280;6302;42.624;23.334;2023-01-31T01:14:01;92759.66;;;-0.28;100.00
12475;BME280;6302;42.624;23.334;2023-01-31T01:16:33;92772.31;;;-0.26;100.00
12475;BME280;6302;42.624;23.334;2023-01-31T01:19:00;92791.31;;;-0.26;100.00
12475;BME280;6302;42.624;23.334;2023-01-31T01:21:29;92770.16;;;-0.40;100.00
12475;BME280;6302;42.624;23.334;2023-01-31T01:23:57;92767.94;;;-0.53;100.00
12475;BME280;6302;42.624;23.334;2023-01-31T01:26:28;92763.66;;;-0.61;100.00
12475;BME280;6302;42.624;23.334;2023-01-31T01:28:56;92763.00;;;-0.58;100.00
12475;BME280;6302;42.624;23.334;2023-01-31T01:31:24;92756.09;;;-0.51;100.00
12475;BME280;6302;42.624;23.334;2023-01-31T01:33:55;92756.69;;;-0.26;100.00
12475;BME280;6302;42.624;23.334;2023-01-31T01:36:23;92754.34;;;0.00;100.00
12475;BME280;6302;42.624;23.334;2023-01-31T01:38:51;92745.59;;;0.27;70.55
12475;BME280;6302;42.624;23.334;2023-01-31T01:41:18;92731.31;;;0.56;62.63
12475;BME280;6302;42.624;23.334;2023-01-31T01:43:48;92733.88;;;0.72;62.11
12475;BME280;6302;42.624;23.334;2023-01-31T01:46:18;92739.63;;;0.81;60.82
12475;BME280;6302;42.624;23.334;2023-01-31T01:48:48;92741.59;;;0.87;61.44
12475;BME280;6302;42.624;23.334;2023-01-31T01:51:16;92745.78;;;0.92;61.17
12475;BME280;6302;42.624;23.334;2023-01-31T01:53:46;92748.47;;;0.95;64.97
12475;BME280;6302;42.624;23.334;2023-01-31T01:56:17;92736.19;;;0.96;64.30
12475;BME280;6302;42.624;23.334;2023-01-31T01:58:51;92739.88;;;0.95;61.88
12475;BME280;6302;42.624;23.334;2023-01-31T02:01:20;92735.47;;;0.99;61.02
12475;BME280;6302;42.624;23.334;2023-01-31T02:03:48;92721.34;;;1.00;58.96
12475;BME280;6302;42.624;23.334;2023-01-31T02:06:16;92732.84;;;0.99;59.62
12475;BME280;6302;42.624;23.334;2023-01-31T02:08:43;92723.13;;;0.96;61.47
12475;BME280;6302;42.624;23.334;2023-01-31T02:11:16;92739.13;;;0.94;61.54
12475;BME280;6302;42.624;23.334;2023-01-31T02:13:47;92699.97;;;0.72;60.16
12475;BME280;6302;42.624;23.334;2023-01-31T02:16:15;92735.34;;;0.92;59.82
12475;BME280;6302;42.624;23.334;2023-01-31T02:18:43;92726.78;;;0.91;57.03
12475;BME280;6302;42.624;23.334;2023-01-31T02:24:27;92725.53;;;0.85;60.11
12475;BME280;6302;42.624;23.334;2023-01-31T02:27:28;92735.84;;;0.78;59.01
12475;BME280;6302;42.624;23.334;2023-01-31T02:30:23;92726.97;;;0.83;57.45
12475;BME280;6302;42.624;23.334;2023-01-31T02:33:01;92714.44;;;0.88;57.26
12475;BME280;6302;42.624;23.334;2023-01-31T02:35:41;92724.97;;;0.95;58.08
12475;BME280;6302;42.624;23.334;2023-01-31T02:38:23;92722.03;;;0.97;60.24
12475;BME280;6302;42.624;23.334;2023-01-31T02:40:58;92720.56;;;0.99;60.28
12475;BME280;6302;42.624;23.334;2023-01-31T02:43:38;92719.41;;;0.97;65.23
12475;BME280;6302;42.624;23.334;2023-01-31T02:46:27;92722.50;;;1.02;67.49
12475;BME280;6302;42.624;23.334;2023-01-31T02:49:04;92742.00;;;1.08;68.12
12475;BME280;6302;42.624;23.334;2023-01-31T02:51:36;92734.91;;;1.09;69.33
12475;BME280;6302;42.624;23.334;2023-01-31T02:54:10;92740.88;;;1.09;69.58
12475;BME280;6302;42.624;23.334;2023-01-31T02:56:38;92739.81;;;1.10;70.44
12475;BME280;6302;42.624;23.334;2023-01-31T02:59:07;92738.63;;;1.08;72.44
12475;BME280;6302;42.624;23.334;2023-01-31T03:01:37;92757.31;;;1.10;74.37
12475;BME280;6302;42.624;23.334;2023-01-31T03:04:09;92753.59;;;1.11;76.62
12475;BME280;6302;42.624;23.334;2023-01-31T03:06:55;92762.88;;;1.08;79.74
12475;BME280;6302;42.624;23.334;2023-01-31T03:09:43;92759.50;;;1.08;80.97
12475;BME280;6302;42.624;23.334;2023-01-31T03:12:28;92768.28;;;1.00;83.21
12475;BME280;6302;42.624;23.334;2023-01-31T03:15:09;92776.63;;;0.86;84.86
12475;BME280;6302;42.624;23.334;2023-01-31T03:17:46;92772.69;;;0.77;88.46
12475;BME280;6302;42.624;23.334;2023-01-31T03:20:19;92782.38;;;0.76;90.96
12475;BME280;6302;42.624;23.334;2023-01-31T03:22:54;92775.16;;;0.70;95.22
12475;BME280;6302;42.624;23.334;2023-01-31T03:25:24;92795.81;;;0.59;99.01
12475;BME280;6302;42.624;23.334;2023-01-31T03:27:54;92789.00;;;0.54;100.00
12475;BME280;6302;42.624;23.334;2023-01-31T03:30:26;92789.00;;;0.54;100.00
12475;BME280;6302;42.624;23.334;2023-01-31T03:32:59;92795.84;;;0.43;100.00
12475;BME280;6302;42.624;23.334;2023-01-31T03:35:33;92779.78;;;0.41;100.00
12475;BME280;6302;42.624;23.334;2023-01-31T03:38:05;92797.28;;;0.41;100.00
12475;BME280;6302;42.624;23.334;2023-01-31T03:40:37;92803.78;;;0.31;100.00
12475;BME280;6302;42.624;23.334;2023-01-31T03:43:13;92794.03;;;0.28;100.00
12475;BME280;6302;42.624;23.334;2023-01-31T03:45:44;92806.63;;;0.26;100.00
12475;BME280;6302;42.624;23.334;2023-01-31T03:48:14;92797.50;;;0.17;100.00
12475;BME280;6302;42.624;23.334;2023-01-31T03:50:48;92818.75;;;0.19;100.00
12475;BME280;6302;42.624;23.334;2023-01-31T03:53:19;92809.00;;;0.16;100.00
12475;BME280;6302;42.624;23.334;2023-01-31T03:55:52;92821.53;;;0.10;100.00
12475;BME280;6302;42.624;23.334;2023-01-31T03:58:26;92821.63;;;0.14;100.00
12475;BME280;6302;42.624;23.334;2023-01-31T04:00:55;92819.34;;;0.12;100.00
12475;BME280;6302;42.624;23.334;2023-01-31T04:03:26;92824.13;;;0.10;100.00
12475;BME280;6302;42.624;23.334;2023-01-31T04:05:55;92818.19;;;0.10;100.00
12475;BME280;6302;42.624;23.334;2023-01-31T04:08:22;92813.53;;;0.03;100.00
12475;BME280;6302;42.624;23.334;2023-01-31T04:10:49;92818.34;;;0.01;100.00
12475;BME280;6302;42.624;23.334;2023-01-31T04:13:16;92818.34;;;0.01;100.00
12475;BME280;6302;42.624;23.334;2023-01-31T04:15:43;92826.91;;;0.02;100.00
12475;BME280;6302;42.624;23.334;2023-01-31T04:18:09;92836.16;;;-0.01;100.00
12475;BME280;6302;42.624;23.334;2023-01-31T04:20:36;92836.16;;;-0.01;100.00
12475;BME280;6302;42.624;23.334;2023-01-31T04:23:04;92836.00;;;-0.08;100.00
12475;BME280;6302;42.624;23.334;2023-01-31T04:25:31;92840.03;;;-0.11;100.00
12475;BME280;6302;42.624;23.334;2023-01-31T04:27:58;92834.22;;;-0.20;100.00
12475;BME280;6302;42.624;23.334;2023-01-31T04:30:24;92853.44;;;-0.24;100.00
12475;BME280;6302;42.624;23.334;2023-01-31T04:32:51;92861.31;;;-0.36;100.00
12475;BME280;6302;42.624;23.334;2023-01-31T04:35:18;92846.13;;;-0.34;100.00
12475;BME280;6302;42.624;23.334;2023-01-31T04:37:45;92872.50;;;-0.36;100.00
12475;BME280;6302;42.624;23.334;2023-01-31T04:40:13;92868.06;;;-0.35;100.00
12475;BME280;6302;42.624;23.334;2023-01-31T04:42:40;92865.34;;;-0.39;100.00
12475;BME280;6302;42.624;23.334;2023-01-31T04:45:08;92867.19;;;-0.39;100.00
12475;BME280;6302;42.624;23.334;2023-01-31T04:47:34;92873.94;;;-0.38;100.00
12475;BME280;6302;42.624;23.334;2023-01-31T04:50:01;92867.19;;;-0.39;100.00
12475;BME280;6302;42.624;23.334;2023-01-31T04:52:28;92873.50;;;-0.40;100.00
12475;BME280;6302;42.624;23.334;2023-01-31T04:54:55;92887.19;;;-0.43;100.00
12475;BME280;6302;42.624;23.334;2023-01-31T04:57:23;92896.94;;;-0.40;100.00
12475;BME280;6302;42.624;23.334;2023-01-31T04:59:50;92870.91;;;-0.40;100.00
12475;BME280;6302;42.624;23.334;2023-01-31T05:02:16;92875.44;;;-0.37;100.00
12475;BME280;6302;42.624;23.334;2023-01-31T05:04:43;92874.16;;;-0.43;100.00
12475;BME280;6302;42.624;23.334;2023-01-31T05:07:10;92887.78;;;-0.34;100.00
12475;BME280;6302;42.624;23.334;2023-01-31T05:09:37;92882.16;;;-0.36;100.00
12475;BME280;6302;42.624;23.334;2023-01-31T05:12:06;92891.13;;;-0.34;100.00
12475;BME280;6302;42.624;23.334;2023-01-31T05:14:35;92880.16;;;-0.27;100.00
12475;BME280;6302;42.624;23.334;2023-01-31T05:17:02;92889.81;;;-0.28;100.00
12475;BME280;6302;42.624;23.334;2023-01-31T05:19:29;92877.97;;;-0.25;100.00
12475;BME280;6302;42.624;23.334;2023-01-31T05:21:55;92888.41;;;-0.25;100.00
12475;BME280;6302;42.624;23.334;2023-01-31T05:24:24;92879.66;;;-0.17;100.00
12475;BME280;6302;42.624;23.334;2023-01-31T05:26:51;92864.72;;;-0.20;100.00
12475;BME280;6302;42.624;23.334;2023-01-31T05:29:23;92887.72;;;-0.22;100.00
12475;BME280;6302;42.624;23.334;2023-01-31T05:31:52;92895.63;;;-0.19;100.00
12475;BME280;6302;42.624;23.334;2023-01-31T05:34:19;92895.28;;;-0.17;100.00
12475;BME280;6302;42.624;23.334;2023-01-31T05:36:45;92874.28;;;-0.24;100.00
12475;BME280;6302;42.624;23.334;2023-01-31T05:39:12;92877.06;;;-0.17;100.00
12475;BME280;6302;42.624;23.334;2023-01-31T05:41:39;92893.03;;;-0.19;100.00
12475;BME280;6302;42.624;23.334;2023-01-31T05:44:06;92903.09;;;-0.17;100.00
12475;BME280;6302;42.624;23.334;2023-01-31T05:46:33;92887.22;;;-0.12;100.00
12475;BME280;6302;42.624;23.334;2023-01-31T05:49:01;92898.75;;;-0.13;100.00
12475;BME280;6302;42.624;23.334;2023-01-31T05:51:28;92900.25;;;-0.12;100.00
12475;BME280;6302;42.624;23.334;2023-01-31T05:53:55;92885.63;;;-0.17;100.00
12475;BME280;6302;42.624;23.334;2023-01-31T05:56:22;92899.75;;;-0.18;100.00
12475;BME280;6302;42.624;23.334;2023-01-31T05:58:49;92899.06;;;-0.15;100.00
12475;BME280;6302;42.624;23.334;2023-01-31T06:01:16;92907.31;;;-0.13;100.00
12475;BME280;6302;42.624;23.334;2023-01-31T06:03:43;92902.19;;;-0.09;100.00
12475;BME280;6302;42.624;23.334;2023-01-31T06:06:12;92900.69;;;-0.10;100.00
12475;BME280;6302;42.624;23.334;2023-01-31T06:08:39;92902.59;;;-0.07;100.00
12475;BME280;6302;42.624;23.334;2023-01-31T06:11:09;92913.47;;;-0.05;100.00
12475;BME280;6302;42.624;23.334;2023-01-31T06:13:36;92903.72;;;-0.08;100.00
12475;BME280;6302;42.624;23.334;2023-01-31T06:16:04;92921.03;;;0.00;100.00
12475;BME280;6302;42.624;23.334;2023-01-31T06:18:31;92917.75;;;0.03;100.00
12475;BME280;6302;42.624;23.334;2023-01-31T06:20:57;92915.56;;;0.05;100.00
12475;BME280;6302;42.624;23.334;2023-01-31T06:23:26;92924.06;;;0.02;100.00
12475;BME280;6302;42.624;23.334;2023-01-31T06:25:53;92936.72;;;0.04;100.00
12475;BME280;6302;42.624;23.334;2023-01-31T06:28:21;92932.72;;;0.06;100.00
12475;BME280;6302;42.624;23.334;2023-01-31T06:30:48;92932.47;;;0.11;100.00
12475;BME280;6302;42.624;23.334;2023-01-31T06:33:15;92923.31;;;0.17;100.00
12475;BME280;6302;42.624;23.334;2023-01-31T06:35:42;92938.00;;;0.25;100.00
12475;BME280;6302;42.624;23.334;2023-01-31T06:38:09;92939.53;;;0.26;100.00
12475;BME280;6302;42.624;23.334;2023-01-31T06:40:38;92931.97;;;0.21;100.00
12475;BME280;6302;42.624;23.334;2023-01-31T06:43:05;92945.81;;;0.25;100.00
12475;BME280;6302;42.624;23.334;2023-01-31T06:45:32;92941.22;;;0.34;100.00
12475;BME280;6302;42.624;23.334;2023-01-31T06:47:59;92948.94;;;0.31;100.00
12475;BME280;6302;42.624;23.334;2023-01-31T06:50:26;92952.88;;;0.25;100.00
12475;BME280;6302;42.624;23.334;2023-01-31T06:52:52;92959.63;;;0.26;100.00
12475;BME280;6302;42.624;23.334;2023-01-31T06:55:19;92962.47;;;0.21;100.00
12475;BME280;6302;42.624;23.334;2023-01-31T06:57:48;92959.19;;;0.24;100.00
12475;BME280;6302;42.624;23.334;2023-01-31T07:00:16;92959.47;;;0.34;100.00
12475;BME280;6302;42.624;23.334;2023-01-31T07:02:44;92959.47;;;0.34;100.00
12475;BME280;6302;42.624;23.334;2023-01-31T07:05:10;92963.75;;;0.42;100.00
12475;BME280;6302;42.624;23.334;2023-01-31T07:07:37;92972.25;;;0.39;100.00
12475;BME280;6302;42.624;23.334;2023-01-31T07:10:04;92968.13;;;0.38;100.00
12475;BME280;6302;42.624;23.334;2023-01-31T07:12:31;92969.81;;;0.46;100.00
12475;BME280;6302;42.624;23.334;2023-01-31T07:15:00;92962.31;;;0.45;100.00
12475;BME280;6302;42.624;23.334;2023-01-31T07:17:27;92966.19;;;0.51;100.00
12475;BME280;6302;42.624;23.334;2023-01-31T07:19:53;92963.25;;;0.52;100.00
12475;BME280;6302;42.624;23.334;2023-01-31T07:22:20;92980.56;;;0.60;100.00
12475;BME280;6302;42.624;23.334;2023-01-31T07:24:47;92983.19;;;0.60;100.00
12475;BME280;6302;42.624;23.334;2023-01-31T07:27:14;92973.84;;;0.59;100.00
12475;BME280;6302;42.624;23.334;2023-01-31T07:29:41;92977.31;;;0.63;100.00
12475;BME280;6302;42.624;23.334;2023-01-31T07:32:10;92966.88;;;0.63;100.00
12475;BME280;6302;42.624;23.334;2023-01-31T07:34:37;92964.78;;;0.69;100.00
12475;BME280;6302;42.624;23.334;2023-01-31T07:37:04;92970.97;;;0.64;100.00
12475;BME280;6302;42.624;23.334;2023-01-31T07:39:31;92969.31;;;0.56;100.00
12475;BME280;6302;42.624;23.334;2023-01-31T07:41:58;92971.56;;;0.58;100.00
12475;BME280;6302;42.624;23.334;2023-01-31T07:44:24;92963.34;;;0.56;100.00
12475;BME280;6302;42.624;23.334;2023-01-31T07:46:51;92969.47;;;0.63;100.00
12475;BME280;6302;42.624;23.334;2023-01-31T07:49:22;92976.19;;;0.64;100.00
12475;BME280;6302;42.624;23.334;2023-01-31T07:51:48;92948.63;;;0.63;100.00
12475;BME280;6302;42.624;23.334;2023-01-31T07:54:15;92970.72;;;0.70;100.00
12475;BME280;6302;42.624;23.334;2023-01-31T07:56:42;92960.72;;;0.72;100.00
12475;BME280;6302;42.624;23.334;2023-01-31T07:59:09;92959.22;;;0.71;100.00
12475;BME280;6302;42.624;23.334;2023-01-31T08:01:37;92965.84;;;0.68;100.00
12475;BME280;6302;42.624;23.334;2023-01-31T08:04:22;92961.81;;;0.71;100.00
12475;BME280;6302;42.624;23.334;2023-01-31T08:06:50;92955.78;;;0.67;100.00
12475;BME280;6302;42.624;23.334;2023-01-31T08:09:19;92948.84;;;0.74;100.00
12475;BME280;6302;42.624;23.334;2023-01-31T08:11:45;92961.56;;;0.76;100.00
12475;BME280;6302;42.624;23.334;2023-01-31T08:14:12;92957.16;;;0.80;100.00
12475;BME280;6302;42.624;23.334;2023-01-31T08:16:39;92961.88;;;0.90;100.00
12475;BME280;6302;42.624;23.334;2023-01-31T08:19:06;92953.28;;;0.89;100.00
12475;BME280;6302;42.624;23.334;2023-01-31T08:21:34;92961.19;;;0.93;100.00
12475;BME280;6302;42.624;23.334;2023-01-31T08:24:01;92953.78;;;0.95;100.00
12475;BME280;6302;42.624;23.334;2023-01-31T08:26:27;92950.91;;;1.00;100.00
12475;BME280;6302;42.624;23.334;2023-01-31T08:28:55;92939.13;;;1.06;100.00
12475;BME280;6302;42.624;23.334;2023-01-31T08:31:24;92933.72;;;1.14;100.00
12475;BME280;6302;42.624;23.334;2023-01-31T08:33:52;92941.09;;;1.28;100.00
12475;BME280;6302;42.624;23.334;2023-01-31T08:36:20;92943.97;;;1.42;100.00
12475;BME280;6302;42.624;23.334;2023-01-31T08:38:49;92957.81;;;1.43;100.00
12475;BME280;6302;42.624;23.334;2023-01-31T08:41:17;92938.75;;;1.23;100.00
12475;BME280;6302;42.624;23.334;2023-01-31T08:43:44;92944.38;;;1.25;100.00
12475;BME280;6302;42.624;23.334;2023-01-31T08:46:13;92941.56;;;1.33;100.00
12475;BME280;6302;42.624;23.334;2023-01-31T08:48:40;92948.44;;;1.22;100.00
12475;BME280;6302;42.624;23.334;2023-01-31T08:51:10;92939.28;;;1.13;100.00
12475;BME280;6302;42.624;23.334;2023-01-31T08:53:38;92935.28;;;1.19;100.00
12475;BME280;6302;42.624;23.334;2023-01-31T08:56:07;92942.97;;;1.12;100.00
12475;BME280;6302;42.624;23.334;2023-01-31T08:58:36;92944.22;;;1.18;100.00
12475;BME280;6302;42.624;23.334;2023-01-31T09:01:05;92941.09;;;1.28;100.00
12475;BME280;6302;42.624;23.334;2023-01-31T09:03:32;92945.97;;;1.49;100.00
12475;BME280;6302;42.624;23.334;2023-01-31T09:05:59;92948.94;;;1.47;100.00
12475;BME280;6302;42.624;23.334;2023-01-31T09:08:26;92966.09;;;1.48;100.00
12475;BME280;6302;42.624;23.334;2023-01-31T09:10:55;92958.84;;;1.57;100.00
12475;BME280;6302;42.624;23.334;2023-01-31T09:13:24;92956.78;;;1.66;100.00
12475;BME280;6302;42.624;23.334;2023-01-31T09:15:56;92955.00;;;1.89;100.00
12475;BME280;6302;42.624;23.334;2023-01-31T09:18:24;92973.75;;;1.95;100.00
12475;BME280;6302;42.624;23.334;2023-01-31T09:20:51;92963.84;;;2.04;100.00
12475;BME280;6302;42.624;23.334;2023-01-31T09:23:17;92964.31;;;2.10;100.00
12475;BME280;6302;42.624;23.334;2023-01-31T09:25:51;92961.84;;;1.97;100.00
12475;BME280;6302;42.624;23.334;2023-01-31T09:28:18;92943.13;;;1.95;100.00
12475;BME280;6302;42.624;23.334;2023-01-31T09:30:46;92951.47;;;2.01;100.00
12475;BME280;6302;42.624;23.334;2023-01-31T09:33:14;92952.81;;;2.14;100.00
12475;BME280;6302;42.624;23.334;2023-01-31T09:35:41;92949.81;;;2.35;100.00
12475;BME280;6302;42.624;23.334;2023-01-31T09:38:07;92947.63;;;2.37;100.00
12475;BME280;6302;42.624;23.334;2023-01-31T09:40:37;92944.81;;;2.49;100.00
12475;BME280;6302;42.624;23.334;2023-01-31T09:43:05;92931.63;;;2.42;100.00
12475;BME280;6302;42.624;23.334;2023-01-31T09:45:35;92924.22;;;2.25;100.00
12475;BME280;6302;42.624;23.334;2023-01-31T09:48:05;92910.25;;;2.14;100.00
12475;BME280;6302;42.624;23.334;2023-01-31T09:50:34;92908.91;;;2.23;100.00
12475;BME280;6302;42.624;23.334;2023-01-31T09:53:02;92916.34;;;2.44;100.00
12475;BME280;6302;42.624;23.334;2023-01-31T09:55:36;92907.94;;;2.31;100.00
12475;BME280;6302;42.624;23.334;2023-01-31T09:58:18;92898.44;;;2.46;100.00
12475;BME280;6302;42.624;23.334;2023-01-31T10:00:51;92908.81;;;2.65;100.00
12475;BME280;6302;42.624;23.334;2023-01-31T10:03:40;92897.00;;;2.75;96.56
12475;BME280;6302;42.624;23.334;2023-01-31T10:06:16;92913.56;;;2.82;96.15
12475;BME280;6302;42.624;23.334;2023-01-31T10:08:49;92916.06;;;2.75;98.15
12475;BME280;6302;42.624;23.334;2023-01-31T10:11:27;92913.31;;;2.91;96.83
12475;BME280;6302;42.624;23.334;2023-01-31T10:13:58;92912.66;;;2.97;96.20
12475;BME280;6302;42.624;23.334;2023-01-31T10:16:30;92905.28;;;3.03;99.71
12475;BME280;6302;42.624;23.334;2023-01-31T10:19:02;92906.50;;;3.12;98.92
12475;BME280;6302;42.624;23.334;2023-01-31T10:21:34;92914.59;;;3.00;97.13
12475;BME280;6302;42.624;23.334;2023-01-31T10:24:12;92913.50;;;3.05;96.69
12475;BME280;6302;42.624;23.334;2023-01-31T10:26:43;92909.59;;;3.18;97.02
12475;BME280;6302;42.624;23.334;2023-01-31T10:29:15;92906.91;;;3.14;93.68
12475;BME280;6302;42.624;23.334;2023-01-31T10:31:49;92917.25;;;3.34;93.29
12475;BME280;6302;42.624;23.334;2023-01-31T10:34:21;92920.06;;;3.48;91.12
12475;BME280;6302;42.624;23.334;2023-01-31T10:36:52;92916.59;;;3.10;90.71
12475;BME280;6302;42.624;23.334;2023-01-31T10:39:25;92910.66;;;3.13;90.37
12475;BME280;6302;42.624;23.334;2023-01-31T10:42:08;92907.88;;;3.03;92.21
12475;BME280;6302;42.624;23.334;2023-01-31T10:44:46;92920.13;;;2.95;94.38
12475;BME280;6302;42.624;23.334;2023-01-31T10:47:17;92909.25;;;2.93;94.66
12475;BME280;6302;42.624;23.334;2023-01-31T10:49:47;92908.31;;;2.82;94.19
12475;BME280;6302;42.624;23.334;2023-01-31T10:52:24;92910.53;;;2.80;94.35
12475;BME280;6302;42.624;23.334;2023-01-31T10:55:05;92910.31;;;2.89;93.91
12475;BME280;6302;42.624;23.334;2023-01-31T10:57:34;92919.06;;;2.74;93.61
12475;BME280;6302;42.624;23.334;2023-01-31T11:00:05;92926.75;;;2.63;100.00
12475;BME280;6302;42.624;23.334;2023-01-31T11:02:32;92923.38;;;2.40;100.00
12475;BME280;6302;42.624;23.334;2023-01-31T11:05:01;92922.03;;;2.27;100.00
12475;BME280;6302;42.624;23.334;2023-01-31T11:07:29;92927.28;;;2.27;100.00
12475;BME280;6302;42.624;23.334;2023-01-31T11:09:56;92923.81;;;2.23;100.00
12475;BME280;6302;42.624;23.334;2023-01-31T11:12:40;92919.81;;;2.06;100.00
12475;BME280;6302;42.624;23.334;2023-01-31T11:15:15;92912.19;;;1.97;100.00
12475;BME280;6302;42.624;23.334;2023-01-31T11:17:43;92920.16;;;2.05;100.00
12475;BME280;6302;42.624;23.334;2023-01-31T11:20:21;92916.88;;;1.88;100.00
12475;BME280;6302;42.624;23.334;2023-01-31T11:22:50;92924.44;;;1.93;100.00
12475;BME280;6302;42.624;23.334;2023-01-31T11:25:19;92920.75;;;1.94;100.00
12475;BME280;6302;42.624;23.334;2023-01-31T11:27:48;92931.06;;;1.87;100.00
12475;BME280;6302;42.624;23.334;2023-01-31T11:30:21;92926.88;;;1.64;100.00
12475;BME280;6302;42.624;23.334;2023-01-31T11:32:48;92922.41;;;1.64;100.00
12475;BME280;6302;42.624;23.334;2023-01-31T11:35:25;92924.63;;;1.62;100.00
12475;BME280;6302;42.624;23.334;2023-01-31T11:37:54;92928.72;;;1.44;100.00
12475;BME280;6302;42.624;23.334;2023-01-31T11:40:27;92927.06;;;1.36;100.00
12475;BME280;6302;42.624;23.334;2023-01-31T11:42:57;92927.34;;;1.31;100.00
12475;BME280;6302;42.624;23.334;2023-01-31T11:45:25;92915.81;;;1.32;100.00
12475;BME280;6302;42.624;23.334;2023-01-31T11:47:54;92906.19;;;1.36;100.00
12475;BME280;6302;42.624;23.334;2023-01-31T11:50:29;92910.19;;;1.49;100.00
12475;BME280;6302;42.624;23.334;2023-01-31T11:52:59;92907.53;;;1.46;100.00
12475;BME280;6302;42.624;23.334;2023-01-31T11:55:27;92913.16;;;1.48;100.00
12475;BME280;6302;42.624;23.334;2023-01-31T11:58:00;92911.00;;;1.34;100.00
12475;BME280;6302;42.624;23.334;2023-01-31T12:00:31;92909.78;;;1.28;100.00
12475;BME280;6302;42.624;23.334;2023-01-31T12:03:01;92910.38;;;1.21;100.00
12475;BME280;6302;42.624;23.334;2023-01-31T12:05:36;92914.34;;;1.15;100.00
12475;BME280;6302;42.624;23.334;2023-01-31T12:08:04;92910.56;;;1.13;100.00
12475;BME280;6302;42.624;23.334;2023-01-31T12:10:39;92909.13;;;1.15;100.00
12475;BME280;6302;42.624;23.334;2023-01-31T12:13:15;92905.09;;;1.18;100.00
12475;BME280;6302;42.624;23.334;2023-01-31T12:15:50;92911.66;;;1.12;100.00
12475;BME280;6302;42.624;23.334;2023-01-31T12:21:13;92907.28;;;1.16;100.00
12475;BME280;6302;42.624;23.334;2023-01-31T12:23:49;92896.84;;;1.16;100.00
12475;BME280;6302;42.624;23.334;2023-01-31T12:26:24;92900.28;;;1.20;100.00
12475;BME280;6302;42.624;23.334;2023-01-31T12:29:09;92911.53;;;1.24;100.00
12475;BME280;6302;42.624;23.334;2023-01-31T12:32:01;92897.13;;;1.30;100.00
12475;BME280;6302;42.624;23.334;2023-01-31T12:34:40;92908.97;;;1.43;100.00
12475;BME280;6302;42.624;23.334;2023-01-31T12:37:26;92906.25;;;1.40;100.00
12475;BME280;6302;42.624;23.334;2023-01-31T12:40:11;92901.53;;;1.45;100.00
12475;BME280;6302;42.624;23.334;2023-01-31T12:42:54;92902.75;;;1.51;100.00
12475;BME280;6302;42.624;23.334;2023-01-31T12:45:33;92907.84;;;1.44;100.00
12475;BME280;6302;42.624;23.334;2023-01-31T12:51:03;92917.75;;;1.54;100.00
12475;BME280;6302;42.624;23.334;2023-01-31T12:53:54;92921.25;;;1.43;100.00
12475;BME280;6302;42.624;23.334;2023-01-31T12:59:31;92911.56;;;1.43;100.00
12475;BME280;6302;42.624;23.334;2023-01-31T13:02:15;92908.75;;;1.33;100.00
12475;BME280;6302;42.624;23.334;2023-01-31T13:04:47;92919.78;;;1.26;100.00
12475;BME280;6302;42.624;23.334;2023-01-31T13:07:21;92925.34;;;1.24;100.00
12475;BME280;6302;42.624;23.334;2023-01-31T13:09:52;92921.84;;;1.17;100.00
12475;BME280;6302;42.624;23.334;2023-01-31T13:12:26;92922.38;;;1.07;100.00
12475;BME280;6302;42.624;23.334;2023-01-31T13:15:00;92920.38;;;1.00;100.00
12475;BME280;6302;42.624;23.334;2023-01-31T13:17:30;92911.16;;;1.06;100.00
12475;BME280;6302;42.624;23.334;2023-01-31T13:20:02;92920.06;;;1.21;100.00
12475;BME280;6302;42.624;23.334;2023-01-31T13:22:46;92927.19;;;1.24;100.00
12475;BME280;6302;42.624;23.334;2023-01-31T13:25:20;92922.47;;;1.29;100.00
12475;BME280;6302;42.624;23.334;2023-01-31T13:27:54;92937.38;;;1.29;100.00